Time;durP1;ratioP1;P1;durP2;ratioP2;P2;SDS_P1;SDS_P2;PMS_P1;PMS_P2;Temp;Humidity;BMP_temperature;BMP_pressure;BME280_temperature;BME280_humidity;BME280_pressure;Samples;Min_cycle;Max_cycle;Signal;HPM_P1;HPM_P2
2024/01/05 00:01:21;;;;;;;10.27;2.13;;;6.90;99.90;;;;;;4944356;28;20027;-78
2024/01/05 00:03:47;;;;;;;8.23;2.03;;;6.90;99.90;;;;;;4931647;28;20042;-78
2024/01/05 00:06:12;;;;;;;8.02;1.60;;;6.90;99.90;;;;;;4926999;28;20034;-77
2024/01/05 00:08:38;;;;;;;7.57;1.65;;;6.90;99.90;;;;;;4947406;28;20035;-78
2024/01/05 00:11:04;;;;;;;4.72;1.27;;;6.90;99.90;;;;;;4932789;28;20031;-78
2024/01/05 00:13:29;;;;;;;7.60;1.52;;;6.90;99.90;;;;;;4944665;28;20031;-79
2024/01/05 00:15:55;;;;;;;4.60;1.85;;;7.00;99.90;;;;;;4929571;28;20342;-78
2024/01/05 00:18:20;;;;;;;11.65;2.45;;;7.00;99.90;;;;;;4959655;28;20772;-78
2024/01/05 00:20:46;;;;;;;11.02;2.13;;;7.00;99.90;;;;;;4915279;28;20030;-78
2024/01/05 00:23:11;;;;;;;6.50;1.58;;;7.00;99.90;;;;;;4933916;28;20107;-77
2024/01/05 00:25:37;;;;;;;7.60;2.13;;;7.00;99.90;;;;;;4960445;28;20038;-77
2024/01/05 00:28:03;;;;;;;7.40;1.75;;;7.00;99.90;;;;;;4942558;28;20157;-78
2024/01/05 00:30:28;;;;;;;11.95;1.58;;;7.00;99.90;;;;;;4946162;28;20393;-78
2024/01/05 00:32:54;;;;;;;14.00;2.55;;;7.00;99.90;;;;;;4946980;28;20034;-78
2024/01/05 00:35:20;;;;;;;10.35;2.03;;;7.10;99.90;;;;;;4945313;28;20554;-77
2024/01/05 00:37:45;;;;;;;11.27;2.63;;;7.10;99.90;;;;;;4945252;28;20035;-78
2024/01/05 00:40:11;;;;;;;7.03;1.67;;;7.00;99.90;;;;;;4941137;28;20049;-78
2024/01/05 00:42:36;;;;;;;13.68;2.55;;;7.10;99.90;;;;;;4947640;28;20082;-78
2024/01/05 00:45:02;;;;;;;7.72;1.70;;;7.10;99.90;;;;;;4945926;28;20046;-77
2024/01/05 00:47:28;;;;;;;11.48;2.13;;;7.10;99.90;;;;;;4961605;28;20041;-78
2024/01/05 00:49:53;;;;;;;5.95;1.85;;;7.10;99.90;;;;;;4912891;28;20085;-78
2024/01/05 00:52:19;;;;;;;7.90;2.10;;;7.00;99.90;;;;;;4946077;28;20026;-78
2024/01/05 00:54:44;;;;;;;13.02;1.42;;;7.00;99.90;;;;;;4916676;28;20042;-78
2024/01/05 00:57:10;;;;;;;12.60;2.10;;;7.00;99.90;;;;;;4946169;28;20039;-78
2024/01/05 00:59:36;;;;;;;11.05;2.20;;;7.00;99.90;;;;;;4932587;28;20110;-77
2024/01/05 01:02:01;;;;;;;9.32;1.67;;;7.00;99.90;;;;;;4944610;28;20046;-77
2024/01/05 01:04:27;;;;;;;12.60;2.10;;;7.00;99.90;;;;;;4929765;28;20043;-77
2024/01/05 01:06:52;;;;;;;12.05;2.20;;;7.00;99.90;;;;;;4943192;28;20509;-77
2024/01/05 01:09:18;;;;;;;13.60;1.55;;;7.00;99.90;;;;;;4927286;28;20089;-78
2024/01/05 01:11:44;;;;;;;7.95;1.98;;;7.00;99.90;;;;;;4928660;28;20043;-78
2024/01/05 01:14:09;;;;;;;7.18;1.70;;;7.00;99.90;;;;;;4929702;28;20031;-78
2024/01/05 01:16:35;;;;;;;7.50;1.38;;;7.10;99.90;;;;;;4932043;28;20035;-78
2024/01/05 01:19:01;;;;;;;9.98;1.50;;;7.10;99.90;;;;;;4921457;28;20031;-78
2024/01/05 01:21:26;;;;;;;11.30;1.48;;;7.10;99.90;;;;;;4960216;28;20121;-79
2024/01/05 01:23:52;;;;;;;11.20;2.20;;;7.10;99.90;;;;;;4913022;28;20397;-78
2024/01/05 01:26:17;;;;;;;10.82;1.60;;;7.10;99.90;;;;;;4945767;28;20412;-78
2024/01/05 01:28:43;;;;;;;7.03;1.83;;;7.10;99.90;;;;;;4911849;28;20126;-78
2024/01/05 01:31:08;;;;;;;12.98;2.00;;;7.00;99.90;;;;;;4946425;28;20089;-78
2024/01/05 01:33:34;;;;;;;8.45;2.45;;;7.00;99.90;;;;;;4946206;28;20038;-78
2024/01/05 01:35:59;;;;;;;5.30;1.67;;;7.00;99.90;;;;;;4913067;28;20515;-78
2024/01/05 01:38:25;;;;;;;12.48;1.60;;;7.00;99.90;;;;;;4927601;28;20696;-78
2024/01/05 01:40:52;;;;;;;13.32;1.67;;;7.00;99.90;;;;;;4928297;28;20777;-79
2024/01/05 01:43:24;;;;;;;8.13;1.70;;;7.00;99.90;;;;;;4945301;28;20051;-78
2024/01/05 01:45:51;;;;;;;18.55;2.63;;;7.00;99.90;;;;;;4943390;28;20043;-78
2024/01/05 01:48:17;;;;;;;11.63;1.83;;;6.90;99.90;;;;;;4910399;28;20040;-77
2024/01/05 01:50:44;;;;;;;10.05;1.70;;;7.00;99.90;;;;;;4942312;28;20472;-78
2024/01/05 01:53:09;;;;;;;6.05;1.85;;;6.90;99.90;;;;;;4913135;28;20150;-77
2024/01/05 01:55:35;;;;;;;9.05;1.77;;;6.90;99.90;;;;;;4945382;28;20118;-77
2024/01/05 01:58:00;;;;;;;8.50;1.80;;;6.90;99.90;;;;;;4925190;28;20393;-78
2024/01/05 02:00:26;;;;;;;11.60;1.70;;;6.90;99.90;;;;;;4933285;28;20060;-77
2024/01/05 02:02:51;;;;;;;18.25;2.30;;;6.90;99.90;;;;;;4930206;28;20504;-78
2024/01/05 02:05:17;;;;;;;7.18;1.45;;;6.80;99.90;;;;;;4929975;28;20027;-77
2024/01/05 02:07:43;;;;;;;6.32;1.60;;;6.90;99.90;;;;;;4943912;28;20061;-77
2024/01/05 02:10:08;;;;;;;6.15;1.38;;;6.80;99.90;;;;;;4933525;28;20043;-78
2024/01/05 02:12:34;;;;;;;7.97;1.77;;;6.80;99.90;;;;;;4927208;28;20493;-78
2024/01/05 02:14:59;;;;;;;6.63;1.17;;;6.80;99.90;;;;;;4928832;28;20061;-78
2024/01/05 02:17:32;;;;;;;8.02;1.70;;;6.80;99.90;;;;;;4929336;28;20172;-78
2024/01/05 02:19:58;;;;;;;14.90;1.65;;;6.80;99.90;;;;;;4914621;28;20039;-78
2024/01/05 02:22:26;;;;;;;9.48;1.60;;;6.70;99.90;;;;;;4943178;28;20027;-78
2024/01/05 02:24:51;;;;;;;12.10;2.00;;;6.70;99.90;;;;;;4943330;28;20057;-78
2024/01/05 02:27:17;;;;;;;8.60;1.48;;;6.70;99.90;;;;;;4945353;28;20729;-79
2024/01/05 02:29:42;;;;;;;9.00;1.48;;;6.70;99.90;;;;;;4914527;28;20047;-78
2024/01/05 02:32:08;;;;;;;10.32;1.63;;;6.70;99.90;;;;;;4930732;28;20035;-78
2024/01/05 02:34:33;;;;;;;7.38;1.48;;;6.70;99.90;;;;;;4929643;28;20043;-78
2024/01/05 02:36:59;;;;;;;6.28;1.25;;;6.70;99.90;;;;;;4910825;28;20034;-77
2024/01/05 02:39:24;;;;;;;6.57;1.50;;;6.70;99.90;;;;;;4928071;28;20451;-77
2024/01/05 02:41:50;;;;;;;9.93;1.65;;;6.60;99.90;;;;;;4942143;28;20498;-78
2024/01/05 02:44:16;;;;;;;10.27;1.63;;;6.60;99.90;;;;;;4928077;28;20119;-76
2024/01/05 02:46:41;;;;;;;9.18;1.83;;;6.60;99.90;;;;;;4944637;28;20070;-78
2024/01/05 02:49:07;;;;;;;8.23;1.52;;;6.60;99.90;;;;;;4929825;28;20127;-78
2024/01/05 02:51:32;;;;;;;5.20;1.35;;;6.50;99.90;;;;;;4943453;28;20034;-77
2024/01/05 02:53:58;;;;;;;11.43;1.58;;;6.60;99.90;;;;;;4906793;28;20050;-76
2024/01/05 02:56:23;;;;;;;8.18;1.50;;;6.50;99.90;;;;;;4928635;28;20034;-77
2024/01/05 02:58:50;;;;;;;13.57;1.77;;;6.50;99.90;;;;;;4945561;28;20138;-77
2024/01/05 03:01:16;;;;;;;11.45;1.70;;;6.40;99.90;;;;;;4944221;28;20030;-78
2024/01/05 03:03:46;;;;;;;9.05;2.45;;;6.50;99.90;;;;;;4943995;28;20397;-78
2024/01/05 03:06:15;;;;;;;7.70;1.42;;;6.50;99.90;;;;;;4915351;28;20042;-78
2024/01/05 03:08:41;;;;;;;4.45;1.45;;;6.40;99.90;;;;;;4931228;28;20038;-78
2024/01/05 03:11:07;;;;;;;11.52;1.70;;;6.40;99.90;;;;;;4944786;28;20034;-78
2024/01/05 03:13:32;;;;;;;5.55;1.67;;;6.40;99.90;;;;;;4929783;28;20481;-79
2024/01/05 03:15:58;;;;;;;7.28;1.63;;;6.40;99.90;;;;;;4914909;28;20481;-79
2024/01/05 03:18:24;;;;;;;14.95;1.90;;;6.40;99.90;;;;;;4942600;28;20141;-78
2024/01/05 03:20:49;;;;;;;12.65;1.98;;;6.30;99.90;;;;;;4929481;28;20058;-80
2024/01/05 03:23:15;;;;;;;4.82;1.10;;;6.30;99.90;;;;;;4961035;28;20031;-78
2024/01/05 03:25:41;;;;;;;13.63;1.35;;;6.40;99.90;;;;;;4941133;28;20221;-78
2024/01/05 03:28:07;;;;;;;10.98;1.98;;;6.40;99.90;;;;;;4943661;28;20543;-78
2024/01/05 03:30:32;;;;;;;15.32;2.03;;;6.30;99.90;;;;;;4944455;28;20035;-78
2024/01/05 03:32:58;;;;;;;8.55;1.98;;;6.30;99.90;;;;;;4928621;28;20035;-79
2024/01/05 03:35:24;;;;;;;8.18;1.83;;;6.20;99.90;;;;;;4941359;28;20041;-79
2024/01/05 03:37:49;;;;;;;9.00;1.77;;;6.30;99.90;;;;;;4957501;28;20505;-79
2024/01/05 03:40:15;;;;;;;12.35;2.33;;;6.20;99.90;;;;;;4959471;28;20400;-78
2024/01/05 03:42:41;;;;;;;6.15;1.35;;;6.30;99.90;;;;;;4934211;28;20120;-78
2024/01/05 03:45:07;;;;;;;7.15;1.40;;;6.20;99.90;;;;;;4917878;28;20030;-78
2024/01/05 03:47:33;;;;;;;16.80;2.70;;;6.20;99.90;;;;;;4932851;28;20042;-76
2024/01/05 03:49:58;;;;;;;7.72;1.50;;;6.20;99.90;;;;;;4930182;28;20031;-78
2024/01/05 03:52:24;;;;;;;6.50;1.20;;;6.20;99.90;;;;;;4931432;28;20444;-78
2024/01/05 03:54:49;;;;;;;9.02;1.70;;;6.20;99.90;;;;;;4930001;28;20034;-79
2024/01/05 03:57:15;;;;;;;8.25;2.35;;;6.20;99.90;;;;;;4948602;28;20070;-79
2024/01/05 03:59:42;;;;;;;5.93;1.40;;;6.10;99.90;;;;;;4928627;28;20042;-79
2024/01/05 04:02:08;;;;;;;9.38;1.55;;;6.10;99.90;;;;;;4949139;28;20524;-79
2024/01/05 04:04:33;;;;;;;6.65;1.52;;;6.10;99.90;;;;;;4931401;28;20028;-79
2024/01/05 04:06:59;;;;;;;8.50;2.10;;;6.10;99.90;;;;;;4930211;28;20513;-79
2024/01/05 04:09:24;;;;;;;10.23;3.05;;;6.10;99.90;;;;;;4948247;28;20500;-79
2024/01/05 04:11:51;;;;;;;9.57;1.50;;;6.10;99.90;;;;;;4931288;28;20046;-79
2024/01/05 04:14:16;;;;;;;16.17;2.30;;;6.20;99.90;;;;;;4933337;28;20030;-79
2024/01/05 04:16:42;;;;;;;6.70;1.77;;;6.20;99.90;;;;;;4930576;28;20035;-79
2024/01/05 04:19:08;;;;;;;12.07;2.17;;;6.10;99.90;;;;;;4916869;28;20214;-79
2024/01/05 04:21:34;;;;;;;12.70;2.13;;;6.10;99.90;;;;;;4930266;28;20461;-79
2024/01/05 04:23:59;;;;;;;10.20;1.77;;;6.20;99.90;;;;;;4936509;28;20035;-79
2024/01/05 04:26:26;;;;;;;4.30;1.15;;;6.20;99.90;;;;;;4946132;28;20058;-79
2024/01/05 04:28:51;;;;;;;10.07;1.75;;;6.20;99.90;;;;;;4947583;28;20031;-79
2024/01/05 04:31:17;;;;;;;7.95;1.98;;;6.30;99.90;;;;;;4902550;29;20555;-79
2024/01/05 04:33:43;;;;;;;8.95;1.48;;;6.30;99.90;;;;;;4947088;28;20031;-79
2024/01/05 04:36:08;;;;;;;9.77;2.00;;;6.40;99.90;;;;;;4927183;28;20495;-79
2024/01/05 04:38:34;;;;;;;9.93;1.77;;;6.40;99.90;;;;;;4944539;28;20027;-79
2024/01/05 04:41:01;;;;;;;9.75;1.95;;;6.50;99.90;;;;;;4931553;28;20053;-78
2024/01/05 04:43:27;;;;;;;9.95;2.03;;;6.50;99.90;;;;;;4932436;28;20034;-79
2024/01/05 04:45:52;;;;;;;13.27;2.70;;;6.60;99.90;;;;;;4944630;28;20047;-79
2024/01/05 04:48:18;;;;;;;20.48;2.83;;;6.50;99.90;;;;;;4932800;28;20120;-79
2024/01/05 04:50:44;;;;;;;9.27;2.60;;;6.50;99.90;;;;;;4926799;28;20066;-78
2024/01/05 04:53:09;;;;;;;8.77;2.25;;;6.60;99.90;;;;;;4913539;28;20456;-79
2024/01/05 04:55:35;;;;;;;9.73;2.20;;;6.60;99.90;;;;;;4945270;28;20066;-78
2024/01/05 04:58:00;;;;;;;8.07;2.20;;;6.70;99.90;;;;;;4930394;28;20031;-78
2024/01/05 05:00:26;;;;;;;14.85;2.30;;;6.70;99.90;;;;;;4944628;28;20036;-78
2024/01/05 05:02:51;;;;;;;8.85;2.08;;;6.70;99.90;;;;;;4947115;28;20066;-78
2024/01/05 05:05:17;;;;;;;11.82;2.85;;;6.70;99.90;;;;;;4909392;28;20039;-78
2024/01/05 05:07:43;;;;;;;13.93;2.15;;;6.70;99.90;;;;;;4912073;28;20174;-77
2024/01/05 05:10:08;;;;;;;9.52;2.33;;;6.70;99.90;;;;;;4929402;28;20039;-78
2024/01/05 05:12:34;;;;;;;10.60;2.10;;;6.80;99.90;;;;;;4945643;28;20121;-78
2024/01/05 05:14:59;;;;;;;6.25;2.33;;;6.80;99.90;;;;;;4945782;28;20038;-79
2024/01/05 05:17:26;;;;;;;9.52;2.72;;;6.70;99.90;;;;;;4927811;28;20535;-79
2024/01/05 05:19:54;;;;;;;6.93;2.45;;;6.80;99.90;;;;;;4924977;28;20035;-78
2024/01/05 05:22:20;;;;;;;8.55;1.70;;;6.80;99.90;;;;;;4930780;28;20031;-78
2024/01/05 05:24:46;;;;;;;7.70;1.90;;;6.90;99.90;;;;;;4948770;28;20046;-78
2024/01/05 05:27:12;;;;;;;7.47;1.92;;;6.90;99.90;;;;;;4946772;28;20027;-79
2024/01/05 05:29:37;;;;;;;7.72;1.80;;;6.90;99.90;;;;;;4930623;28;20046;-79
2024/01/05 05:32:03;;;;;;;10.35;1.52;;;6.90;99.90;;;;;;4929949;28;20046;-80
2024/01/05 05:34:28;;;;;;;8.63;2.67;;;7.00;99.90;;;;;;4930748;28;20070;-79
2024/01/05 05:36:54;;;;;;;12.23;2.15;;;7.00;99.90;;;;;;4911978;28;20047;-79
2024/01/05 05:39:20;;;;;;;5.75;1.80;;;7.00;99.90;;;;;;4943622;28;20041;-79
2024/01/05 05:41:45;;;;;;;4.72;1.27;;;7.00;99.90;;;;;;4944951;28;20031;-79
2024/01/05 05:44:11;;;;;;;9.00;2.35;;;7.00;99.90;;;;;;4932088;28;20401;-79
2024/01/05 05:46:36;;;;;;;7.63;1.95;;;7.00;99.90;;;;;;4948589;28;20038;-80
2024/01/05 05:49:02;;;;;;;4.53;1.73;;;7.00;99.90;;;;;;4932099;28;20070;-79
2024/01/05 05:51:27;;;;;;;6.78;1.58;;;7.10;99.90;;;;;;4913760;28;20620;-79
2024/01/05 05:53:53;;;;;;;3.33;1.45;;;7.00;99.90;;;;;;4910963;28;20030;-79
2024/01/05 05:56:18;;;;;;;9.70;2.15;;;7.00;99.90;;;;;;4914852;28;20069;-79
2024/01/05 05:58:44;;;;;;;5.93;1.85;;;7.00;99.90;;;;;;4941391;28;20034;-79
2024/01/05 06:01:12;;;;;;;11.23;1.85;;;7.00;99.90;;;;;;4940483;28;20389;-79
2024/01/05 06:03:38;;;;;;;8.25;1.83;;;7.00;99.90;;;;;;4930412;28;20085;-79
2024/01/05 06:06:05;;;;;;;6.82;2.05;;;7.00;99.90;;;;;;4928589;28;20035;-79
2024/01/05 06:08:30;;;;;;;7.32;1.90;;;6.90;99.90;;;;;;4945181;28;20035;-79
2024/01/05 06:10:56;;;;;;;5.65;1.70;;;6.90;99.90;;;;;;4926554;28;20489;-79
2024/01/05 06:13:21;;;;;;;6.50;1.65;;;6.90;99.90;;;;;;4930464;28;20064;-79
2024/01/05 06:15:47;;;;;;;9.10;1.50;;;6.90;99.90;;;;;;4923607;28;20478;-79
2024/01/05 06:18:13;;;;;;;10.00;1.60;;;6.80;99.90;;;;;;4925719;28;20039;-79
2024/01/05 06:20:38;;;;;;;6.97;1.90;;;6.80;99.90;;;;;;4945909;28;20461;-79
2024/01/05 06:23:04;;;;;;;9.65;2.03;;;6.80;99.90;;;;;;4927857;28;20038;-80
2024/01/05 06:25:30;;;;;;;9.40;2.03;;;6.70;99.90;;;;;;4930034;28;20513;-79
2024/01/05 06:27:55;;;;;;;6.18;1.88;;;6.70;99.90;;;;;;4943682;28;20113;-79
2024/01/05 06:30:21;;;;;;;4.05;1.80;;;6.70;99.90;;;;;;4943087;28;20069;-78
2024/01/05 06:32:47;;;;;;;5.55;1.55;;;6.70;99.90;;;;;;4942026;28;20552;-79
2024/01/05 06:35:13;;;;;;;5.72;1.63;;;6.70;99.90;;;;;;4945846;28;20118;-78
2024/01/05 06:37:39;;;;;;;9.00;1.73;;;6.70;99.90;;;;;;4945085;28;20560;-78
2024/01/05 06:40:05;;;;;;;5.85;1.55;;;6.70;99.90;;;;;;4930029;28;20389;-78
2024/01/05 06:42:31;;;;;;;7.93;1.75;;;6.70;99.90;;;;;;4929050;28;20059;-78
2024/01/05 06:44:56;;;;;;;4.68;1.58;;;6.60;99.90;;;;;;4908097;28;20074;-78
2024/01/05 06:47:22;;;;;;;9.07;1.80;;;6.60;99.90;;;;;;4927289;28;20117;-78
2024/01/05 06:49:48;;;;;;;7.00;1.85;;;6.60;99.90;;;;;;4913963;28;20038;-80
2024/01/05 06:52:13;;;;;;;5.65;2.45;;;6.60;99.90;;;;;;4946106;28;20053;-79
2024/01/05 06:54:39;;;;;;;11.52;1.95;;;6.60;99.90;;;;;;4929493;28;20030;-79
2024/01/05 06:57:07;;;;;;;5.30;1.25;;;6.50;99.90;;;;;;4929324;28;20031;-79
2024/01/05 06:59:32;;;;;;;7.50;1.85;;;6.50;99.90;;;;;;4928844;28;20046;-79
2024/01/05 07:01:58;;;;;;;10.50;1.35;;;6.50;99.90;;;;;;4926811;28;20038;-78
2024/01/05 07:04:23;;;;;;;4.88;1.30;;;6.50;99.90;;;;;;4941803;28;20042;-79
2024/01/05 07:06:49;;;;;;;8.88;1.58;;;6.60;99.90;;;;;;4925426;28;20105;-79
2024/01/05 07:09:14;;;;;;;8.32;1.73;;;6.60;99.90;;;;;;4944697;28;20113;-78
2024/01/05 07:11:40;;;;;;;10.20;1.55;;;6.70;99.90;;;;;;4930913;28;20058;-79
2024/01/05 07:14:05;;;;;;;9.43;1.67;;;6.70;99.90;;;;;;4930536;28;20049;-79
2024/01/05 07:16:31;;;;;;;6.18;1.48;;;6.70;99.90;;;;;;4932671;28;20046;-79
2024/01/05 07:18:56;;;;;;;5.20;1.67;;;6.70;99.90;;;;;;4931178;28;20031;-79
2024/01/05 07:21:22;;;;;;;6.85;1.45;;;6.80;99.90;;;;;;4945504;28;20023;-79
2024/01/05 07:23:47;;;;;;;6.55;1.25;;;6.80;99.90;;;;;;4949342;28;20045;-79
2024/01/05 07:26:17;;;;;;;5.50;1.13;;;6.80;99.90;;;;;;4931836;28;20046;-79
2024/01/05 07:28:42;;;;;;;5.13;1.67;;;6.90;99.90;;;;;;4948384;28;20117;-80
2024/01/05 07:31:09;;;;;;;4.60;1.02;;;7.00;99.90;;;;;;4951650;28;20166;-78
2024/01/05 07:33:35;;;;;;;8.38;1.73;;;7.00;99.90;;;;;;4945644;28;20038;-79
2024/01/05 07:36:04;;;;;;;3.17;1.65;;;7.00;99.90;;;;;;4962401;28;20035;-79
2024/01/05 07:38:31;;;;;;;7.90;1.42;;;7.00;99.90;;;;;;4946404;28;20031;-78
2024/01/05 07:40:57;;;;;;;7.70;1.70;;;7.00;99.90;;;;;;4925824;28;20054;-79
2024/01/05 07:43:23;;;;;;;6.30;1.08;;;7.00;99.90;;;;;;4947648;28;20042;-78
2024/01/05 07:45:49;;;;;;;7.05;1.58;;;7.00;99.90;;;;;;4917045;28;20691;-78
2024/01/05 07:48:15;;;;;;;4.70;0.95;;;7.00;99.90;;;;;;4933796;28;20027;-78
2024/01/05 07:50:42;;;;;;;6.82;1.13;;;7.10;99.90;;;;;;4946972;28;20038;-78
2024/01/05 07:53:07;;;;;;;8.02;1.73;;;7.10;99.90;;;;;;4931751;28;20042;-78
2024/01/05 07:55:33;;;;;;;8.25;1.08;;;7.10;99.90;;;;;;4941809;28;20730;-77
2024/01/05 07:57:58;;;;;;;5.72;1.00;;;7.10;99.90;;;;;;4959983;28;20404;-78
2024/01/05 08:00:24;;;;;;;9.38;1.20;;;7.10;99.90;;;;;;4929085;28;20070;-78
2024/01/05 08:02:50;;;;;;;5.15;0.93;;;7.10;99.90;;;;;;4961788;28;20067;-78
2024/01/05 08:05:16;;;;;;;4.38;1.08;;;7.20;99.90;;;;;;4947022;28;20034;-77
2024/01/05 08:07:44;;;;;;;3.95;1.17;;;7.20;99.90;;;;;;4919920;28;20066;-78
2024/01/05 08:10:10;;;;;;;5.80;1.10;;;7.20;99.90;;;;;;4932523;28;20452;-78
2024/01/05 08:12:35;;;;;;;9.52;1.23;;;7.20;99.90;;;;;;4959353;28;20045;-78
2024/01/05 08:15:01;;;;;;;9.45;1.38;;;7.20;99.90;;;;;;4928166;28;20394;-78
2024/01/05 08:17:26;;;;;;;5.60;1.08;;;7.20;99.90;;;;;;4930555;28;20332;-78
2024/01/05 08:19:52;;;;;;;3.08;1.10;;;7.30;99.90;;;;;;4961791;28;20126;-78
2024/01/05 08:22:18;;;;;;;1.55;0.85;;;7.30;99.90;;;;;;4925781;28;20062;-77
2024/01/05 08:24:43;;;;;;;5.68;0.85;;;7.30;99.90;;;;;;4914034;28;20034;-78
2024/01/05 08:27:09;;;;;;;3.22;1.00;;;7.40;99.90;;;;;;4928452;28;20711;-78
2024/01/05 08:29:34;;;;;;;4.93;1.10;;;7.40;99.90;;;;;;4929290;28;20513;-78
2024/01/05 08:32:02;;;;;;;5.35;1.08;;;7.40;99.90;;;;;;4929904;28;20039;-77
2024/01/05 08:34:28;;;;;;;2.60;0.73;;;7.50;99.90;;;;;;4926480;28;20034;-78
2024/01/05 08:36:54;;;;;;;0.80;0.20;;;7.50;99.90;;;;;;4944325;28;20078;-78
2024/01/05 08:39:20;;;;;;;3.03;1.05;;;7.50;99.90;;;;;;4925709;28;20023;-78
2024/01/05 08:41:46;;;;;;;4.07;1.27;;;7.60;99.90;;;;;;4936640;28;20038;-77
2024/01/05 08:44:12;;;;;;;0.40;0.30;;;7.60;99.90;;;;;;4929447;28;20061;-77
2024/01/05 08:46:38;;;;;;;2.13;0.57;;;7.60;99.90;;;;;;4945761;28;20387;-78
2024/01/05 08:49:04;;;;;;;7.22;0.82;;;7.60;99.90;;;;;;4927915;28;20041;-78
2024/01/05 08:51:30;;;;;;;4.10;0.85;;;7.60;99.90;;;;;;4930560;28;20567;-79
2024/01/05 08:53:57;;;;;;;0.32;0.32;;;7.60;99.90;;;;;;4946231;28;20045;-78
2024/01/05 08:56:23;;;;;;;1.95;0.70;;;7.60;99.90;;;;;;4931737;28;20547;-77
2024/01/05 08:58:49;;;;;;;0.75;0.30;;;7.60;99.90;;;;;;4930516;28;20035;-78
2024/01/05 09:01:14;;;;;;;1.45;0.52;;;7.70;99.90;;;;;;4941942;28;20093;-77
2024/01/05 09:03:40;;;;;;;4.15;0.90;;;7.70;99.90;;;;;;4938016;28;20094;-78
2024/01/05 09:06:06;;;;;;;2.25;0.73;;;7.70;99.90;;;;;;4959890;28;20030;-77
2024/01/05 09:08:32;;;;;;;0.52;0.50;;;7.70;99.90;;;;;;4936115;28;20747;-77
2024/01/05 09:10:57;;;;;;;1.15;0.60;;;7.80;99.90;;;;;;4941844;28;20046;-77
2024/01/05 09:13:23;;;;;;;0.57;0.50;;;7.80;99.90;;;;;;4931727;28;20030;-77
2024/01/05 09:15:48;;;;;;;3.50;0.57;;;7.80;99.90;;;;;;4946201;28;20042;-78
2024/01/05 09:18:14;;;;;;;1.65;0.40;;;7.80;99.90;;;;;;4945658;28;22024;-77
2024/01/05 09:20:40;;;;;;;3.95;0.65;;;7.90;99.90;;;;;;4928712;28;20053;-77
2024/01/05 09:23:06;;;;;;;3.33;0.70;;;7.80;99.90;;;;;;4932749;28;20054;-78
2024/01/05 09:25:32;;;;;;;5.05;0.50;;;7.80;99.90;;;;;;4945746;28;20034;-77
2024/01/05 09:28:01;;;;;;;1.42;0.73;;;7.80;99.90;;;;;;4924834;28;20478;-78
2024/01/05 09:30:26;;;;;;;1.60;0.50;;;7.80;99.90;;;;;;4935002;28;20486;-78
2024/01/05 09:32:52;;;;;;;1.35;0.47;;;7.80;99.90;;;;;;4946921;28;20075;-79
2024/01/05 09:35:18;;;;;;;3.75;0.50;;;7.80;99.90;;;;;;4942862;28;20374;-78
2024/01/05 09:37:43;;;;;;;1.75;0.55;;;7.80;99.90;;;;;;4928601;28;20043;-78
2024/01/05 09:40:11;;;;;;;2.58;0.40;;;7.80;99.90;;;;;;4928471;28;20043;-78
2024/01/05 09:42:40;;;;;;;0.65;0.20;;;7.80;99.90;;;;;;4945206;28;20574;-79
2024/01/05 09:45:06;;;;;;;4.30;0.40;;;7.80;99.90;;;;;;4945953;28;20039;-78
2024/01/05 09:47:31;;;;;;;0.50;0.50;;;7.80;99.90;;;;;;4915874;28;20583;-78
2024/01/05 09:49:57;;;;;;;0.17;0.10;;;7.80;99.90;;;;;;4942890;28;20046;-79
2024/01/05 09:52:22;;;;;;;1.30;0.20;;;7.80;99.90;;;;;;4915554;28;20046;-79
2024/01/05 09:54:50;;;;;;;0.68;0.20;;;7.80;99.90;;;;;;4945395;28;20035;-78
2024/01/05 09:57:16;;;;;;;0.03;0.03;;;7.70;99.90;;;;;;4926570;28;20170;-78
2024/01/05 09:59:44;;;;;;;1.30;0.15;;;7.90;99.90;;;;;;4945380;28;20031;-77
2024/01/05 10:02:13;;;;;;;0.00;0.00;;;7.90;99.90;;;;;;4944325;28;20038;-78
2024/01/05 10:04:39;;;;;;;0.13;0.13;;;7.90;99.90;;;;;;4930758;28;20118;-77
2024/01/05 10:07:04;;;;;;;0.10;0.10;;;7.90;99.90;;;;;;4941564;28;20116;-77
2024/01/05 10:09:33;;;;;;;0.43;0.20;;;7.90;99.90;;;;;;4930557;28;20031;-78
2024/01/05 10:11:58;;;;;;;0.17;0.10;;;8.00;99.90;;;;;;4925535;28;20050;-78
2024/01/05 10:14:27;;;;;;;0.00;0.00;;;8.00;99.90;;;;;;4927208;28;20027;-78
2024/01/05 10:17:07;;;;;;;1.05;0.10;;;8.00;99.90;;;;;;4912295;28;20059;-77
2024/01/05 10:19:33;;;;;;;0.32;0.20;;;8.00;99.90;;;;;;4959603;28;20046;-77
2024/01/05 10:22:07;;;;;;;1.27;0.10;;;8.00;99.90;;;;;;4927258;28;20035;-77
2024/01/05 10:24:33;;;;;;;0.05;0.05;;;8.00;99.90;;;;;;4929184;28;20580;-77
2024/01/05 10:27:09;;;;;;;1.73;0.55;;;8.00;99.90;;;;;;4930991;28;20122;-77
2024/01/05 10:29:38;;;;;;;;;;;8.10;99.90;;;;;;4941774;28;20034;-78
2024/01/05 10:32:14;;;;;;;0.10;0.10;;;8.00;99.90;;;;;;4937579;28;19910;-77
2024/01/05 10:34:45;;;;;;;0.10;0.10;;;8.00;99.90;;;;;;4925675;28;21192;-77
2024/01/05 10:37:10;;;;;;;1.35;0.40;;;8.00;99.90;;;;;;4941634;28;20551;-77
2024/01/05 10:39:36;;;;;;;0.40;0.13;;;8.10;99.90;;;;;;4944367;28;20086;-77
2024/01/05 10:42:20;;;;;;;0.10;0.10;;;8.10;99.90;;;;;;4246503;28;10000175;-78
2024/01/05 10:44:47;;;;;;;5.57;0.20;;;8.10;99.90;;;;;;4941082;28;20039;-78
2024/01/05 10:47:16;;;;;;;0.30;0.22;;;8.10;99.90;;;;;;4923705;28;20041;-78
2024/01/05 10:49:48;;;;;;;0.10;0.10;;;8.10;99.90;;;;;;4928150;28;20047;-79
2024/01/05 10:52:15;;;;;;;2.92;0.30;;;8.10;99.90;;;;;;4945647;28;20027;-79
2024/01/05 10:54:41;;;;;;;0.20;0.10;;;8.10;99.90;;;;;;4946915;28;20058;-80
2024/01/05 10:57:08;;;;;;;0.50;0.50;;;8.20;99.90;;;;;;4946591;28;20117;-79
2024/01/05 10:59:34;;;;;;;0.10;0.10;;;8.20;99.90;;;;;;4944974;28;20054;-79
2024/01/05 11:02:00;;;;;;;0.30;0.20;;;8.10;99.90;;;;;;4932264;28;20063;-79
2024/01/05 11:04:25;;;;;;;0.65;0.10;;;8.20;99.90;;;;;;4932183;28;20039;-79
2024/01/05 11:06:51;;;;;;;1.55;0.20;;;8.10;99.90;;;;;;4948091;28;20039;-79
2024/01/05 11:09:45;;;;;;;2.80;0.55;;;8.20;99.90;;;;;;4946112;28;20444;-79
2024/01/05 11:12:36;;;;;;;1.13;0.20;;;8.10;99.90;;;;;;4955835;28;20039;-79
2024/01/05 11:15:10;;;;;;;0.45;0.13;;;8.20;99.90;;;;;;4952141;28;20039;-79
2024/01/05 11:17:50;;;;;;;1.65;0.40;;;8.20;99.90;;;;;;4963589;28;20450;-78
2024/01/05 11:20:24;;;;;;;1.45;0.40;;;8.20;99.90;;;;;;4953909;28;20170;-78
2024/01/05 11:22:50;;;;;;;0.00;0.00;;;8.20;99.90;;;;;;4965574;28;20405;-78
2024/01/05 11:25:15;;;;;;;0.52;0.10;;;8.20;99.90;;;;;;4949670;28;20030;-78
2024/01/05 11:27:45;;;;;;;1.75;0.22;;;8.20;99.90;;;;;;4934728;28;20047;-78
2024/01/05 11:30:11;;;;;;;3.47;0.30;;;8.20;99.90;;;;;;4934687;28;20373;-78
2024/01/05 11:32:47;;;;;;;0.43;0.17;;;8.20;99.90;;;;;;4937659;28;20041;-78
2024/01/05 11:35:16;;;;;;;;;;;8.30;99.90;;;;;;4945628;28;20837;-78
2024/01/05 11:37:42;;;;;;;0.13;0.13;;;8.30;99.90;;;;;;4960326;28;20452;-78
2024/01/05 11:40:08;;;;;;;0.57;0.32;;;8.20;99.90;;;;;;4948842;28;20027;-77
2024/01/05 11:42:33;;;;;;;2.72;0.43;;;8.20;99.90;;;;;;4933785;28;20592;-78
2024/01/05 11:45:01;;;;;;;1.58;0.30;;;8.20;99.90;;;;;;4917447;28;20034;-78
2024/01/05 11:47:42;;;;;;;0.17;0.10;;;8.30;99.90;;;;;;4933965;28;20802;-78
2024/01/05 11:50:27;;;;;;;0.60;0.25;;;8.20;99.90;;;;;;4933113;28;20105;-78
2024/01/05 11:53:14;;;;;;;1.02;0.15;;;8.20;99.90;;;;;;4932900;28;20023;-79
2024/01/05 11:55:47;;;;;;;3.30;0.30;;;8.30;99.90;;;;;;4961273;28;20030;-79
2024/01/05 11:58:19;;;;;;;0.77;0.45;;;8.30;99.90;;;;;;4949894;28;20053;-79
2024/01/05 12:00:47;;;;;;;2.15;0.75;;;8.30;99.90;;;;;;4963545;28;20615;-79
2024/01/05 12:03:16;;;;;;;2.05;0.38;;;8.40;99.90;;;;;;4949228;28;20045;-78
2024/01/05 12:05:42;;;;;;;1.60;0.30;;;8.40;99.90;;;;;;4933971;28;20073;-78
2024/01/05 12:08:09;;;;;;;0.80;0.43;;;8.50;99.90;;;;;;4935158;28;20046;-79
2024/01/05 12:10:34;;;;;;;1.30;0.40;;;8.50;99.90;;;;;;4918597;28;20437;-79
2024/01/05 12:13:00;;;;;;;1.30;0.28;;;8.50;99.90;;;;;;4932897;28;20034;-79
2024/01/05 12:15:26;;;;;;;0.35;0.28;;;8.50;99.90;;;;;;4949631;28;20031;-79
2024/01/05 12:18:03;;;;;;;1.30;0.30;;;8.50;99.90;;;;;;4951161;28;20525;-78
2024/01/05 12:20:30;;;;;;;1.75;0.30;;;8.50;99.90;;;;;;4926710;28;20487;-79
2024/01/05 12:22:55;;;;;;;0.22;0.22;;;8.50;99.90;;;;;;4950413;28;20027;-78
2024/01/05 12:25:21;;;;;;;1.35;0.32;;;8.40;99.90;;;;;;4962379;28;20035;-78
2024/01/05 12:27:46;;;;;;;0.22;0.22;;;8.40;99.90;;;;;;4937934;28;20090;-77
2024/01/05 12:30:12;;;;;;;1.98;0.30;;;8.40;99.90;;;;;;4929334;28;20085;-78
2024/01/05 12:32:37;;;;;;;1.45;0.40;;;8.30;99.90;;;;;;4946149;28;20542;-77
2024/01/05 12:35:04;;;;;;;0.30;0.30;;;8.30;99.90;;;;;;4934185;28;20027;-77
2024/01/05 12:37:29;;;;;;;1.77;0.40;;;8.20;99.90;;;;;;4932723;28;20326;-78
2024/01/05 12:40:10;;;;;;;1.23;0.40;;;8.10;99.90;;;;;;4948670;28;20046;-78
2024/01/05 12:42:36;;;;;;;1.13;0.40;;;8.10;99.90;;;;;;4962689;28;20053;-79
2024/01/05 12:45:08;;;;;;;1.50;0.30;;;8.10;99.90;;;;;;4929518;28;20038;-78
2024/01/05 12:47:34;;;;;;;2.78;0.52;;;8.10;99.90;;;;;;4947092;28;20114;-79
2024/01/05 12:50:05;;;;;;;0.80;0.40;;;8.10;99.90;;;;;;4946237;28;20500;-78
2024/01/05 12:52:37;;;;;;;0.82;0.30;;;8.00;99.90;;;;;;4932037;28;20027;-79